sensor_id;sensor_type;location;lat;lon;timestamp;P1;P2;P0
50787;PMS5003;36756;50.846;20.632;2024-03-23T01:00:21;24;21;14
50787;PMS5003;36756;50.846;20.632;2024-03-23T01:10:12;27;23;15
50787;PMS5003;36756;50.846;20.632;2024-03-23T01:20:02;27;23;15
50787;PMS5003;36756;50.846;20.632;2024-03-23T01:30:15;27;23;15
50787;PMS5003;36756;50.846;20.632;2024-03-23T01:40:07;24;22;14
50787;PMS5003;36756;50.846;20.632;2024-03-23T01:50:01;24;22;14
50787;PMS5003;36756;50.846;20.632;2024-03-23T02:00:15;24;22;14
50787;PMS5003;36756;50.846;20.632;2024-03-23T02:10:18;18;18;11
50787;PMS5003;36756;50.846;20.632;2024-03-23T02:20:13;18;18;11
50787;PMS5003;36756;50.846;20.632;2024-03-23T02:30:07;18;18;11
50787;PMS5003;36756;50.846;20.632;2024-03-23T02:40:11;26;24;15
50787;PMS5003;36756;50.846;20.632;2024-03-23T02:50:15;26;24;15
50787;PMS5003;36756;50.846;20.632;2024-03-23T03:00:18;26;24;15
50787;PMS5003;36756;50.846;20.632;2024-03-23T03:10:12;23;21;14
50787;PMS5003;36756;50.846;20.632;2024-03-23T03:20:19;23;21;14
50787;PMS5003;36756;50.846;20.632;2024-03-23T03:30:14;23;21;14
50787;PMS5003;36756;50.846;20.632;2024-03-23T03:40:05;28;23;13
50787;PMS5003;36756;50.846;20.632;2024-03-23T03:50:01;28;23;13
50787;PMS5003;36756;50.846;20.632;2024-03-23T04:00:05;28;23;13
50787;PMS5003;36756;50.846;20.632;2024-03-23T04:20:17;30;28;13
50787;PMS5003;36756;50.846;20.632;2024-03-23T04:30:19;30;28;13
50787;PMS5003;36756;50.846;20.632;2024-03-23T04:40:02;27;26;15
50787;PMS5003;36756;50.846;20.632;2024-03-23T04:50:16;27;26;15
50787;PMS5003;36756;50.846;20.632;2024-03-23T05:00:21;27;26;15
50787;PMS5003;36756;50.846;20.632;2024-03-23T05:10:02;29;25;16
50787;PMS5003;36756;50.846;20.632;2024-03-23T05:20:04;29;25;16
50787;PMS5003;36756;50.846;20.632;2024-03-23T05:30:09;29;25;16
50787;PMS5003;36756;50.846;20.632;2024-03-23T05:40:02;28;23;13
50787;PMS5003;36756;50.846;20.632;2024-03-23T05:50:20;28;23;13
50787;PMS5003;36756;50.846;20.632;2024-03-23T06:00:26;28;23;13
50787;PMS5003;36756;50.846;20.632;2024-03-23T06:10:07;25;23;14
50787;PMS5003;36756;50.846;20.632;2024-03-23T06:20:06;25;23;14
50787;PMS5003;36756;50.846;20.632;2024-03-23T06:30:04;25;23;14
50787;PMS5003;36756;50.846;20.632;2024-03-23T06:40:05;24;22;16
50787;PMS5003;36756;50.846;20.632;2024-03-23T06:50:15;24;22;16
50787;PMS5003;36756;50.846;20.632;2024-03-23T07:00:05;24;22;16
50787;PMS5003;36756;50.846;20.632;2024-03-23T07:20:17;23;19;12
50787;PMS5003;36756;50.846;20.632;2024-03-23T07:30:04;23;19;12
50787;PMS5003;36756;50.846;20.632;2024-03-23T07:40:14;21;15;11
50787;PMS5003;36756;50.846;20.632;2024-03-23T07:50:14;21;15;11
50787;PMS5003;36756;50.846;20.632;2024-03-23T08:00:16;21;15;11
50787;PMS5003;36756;50.846;20.632;2024-03-23T08:10:04;15;14;10
50787;PMS5003;36756;50.846;20.632;2024-03-23T08:20:04;15;14;10
50787;PMS5003;36756;50.846;20.632;2024-03-23T08:30:14;15;14;10
50787;PMS5003;36756;50.846;20.632;2024-03-23T08:40:13;17;15;10
50787;PMS5003;36756;50.846;20.632;2024-03-23T08:50:14;17;15;10
50787;PMS5003;36756;50.846;20.632;2024-03-23T09:00:22;17;15;10
50787;PMS5003;36756;50.846;20.632;2024-03-23T09:10:04;19;14;8
50787;PMS5003;36756;50.846;20.632;2024-03-23T09:20:14;19;14;8
50787;PMS5003;36756;50.846;20.632;2024-03-23T09:30:17;19;14;8
50787;PMS5003;36756;50.846;20.632;2024-03-23T09:40:11;16;15;10
50787;PMS5003;36756;50.846;20.632;2024-03-23T09:50:14;16;15;10
50787;PMS5003;36756;50.846;20.632;2024-03-23T10:00:09;16;15;10
50787;PMS5003;36756;50.846;20.632;2024-03-23T10:20:27;23;18;11
50787;PMS5003;36756;50.846;20.632;2024-03-23T10:30:15;23;18;11
50787;PMS5003;36756;50.846;20.632;2024-03-23T10:50:01;13;12;8
50787;PMS5003;36756;50.846;20.632;2024-03-23T11:00:19;13;12;8
50787;PMS5003;36756;50.846;20.632;2024-03-23T11:20:12;12;10;6
50787;PMS5003;36756;50.846;20.632;2024-03-23T11:30:12;12;10;6
50787;PMS5003;36756;50.846;20.632;2024-03-23T11:40:25;13;11;9
50787;PMS5003;36756;50.846;20.632;2024-03-23T11:50:23;13;11;9
50787;PMS5003;36756;50.846;20.632;2024-03-23T12:00:37;13;11;9
50787;PMS5003;36756;50.846;20.632;2024-03-23T12:10:10;16;16;9
50787;PMS5003;36756;50.846;20.632;2024-03-23T12:20:16;16;16;9
50787;PMS5003;36756;50.846;20.632;2024-03-23T12:30:16;16;16;9
50787;PMS5003;36756;50.846;20.632;2024-03-23T12:40:14;13;12;8
50787;PMS5003;36756;50.846;20.632;2024-03-23T12:50:16;13;12;8
50787;PMS5003;36756;50.846;20.632;2024-03-23T13:00:20;13;12;8
50787;PMS5003;36756;50.846;20.632;2024-03-23T13:10:02;11;10;7
50787;PMS5003;36756;50.846;20.632;2024-03-23T13:20:15;11;10;7
50787;PMS5003;36756;50.846;20.632;2024-03-23T13:30:10;11;10;7
50787;PMS5003;36756;50.846;20.632;2024-03-23T13:40:04;12;11;7
50787;PMS5003;36756;50.846;20.632;2024-03-23T13:50:11;12;11;7
50787;PMS5003;36756;50.846;20.632;2024-03-23T14:00:20;12;11;7
50787;PMS5003;36756;50.846;20.632;2024-03-23T14:10:16;11;9;7
50787;PMS5003;36756;50.846;20.632;2024-03-23T14:20:13;11;9;7
50787;PMS5003;36756;50.846;20.632;2024-03-23T14:30:14;11;9;7
50787;PMS5003;36756;50.846;20.632;2024-03-23T14:40:16;12;11;9
50787;PMS5003;36756;50.846;20.632;2024-03-23T14:50:18;12;11;9
50787;PMS5003;36756;50.846;20.632;2024-03-23T15:00:13;12;11;9
50787;PMS5003;36756;50.846;20.632;2024-03-23T15:20:11;19;15;11
50787;PMS5003;36756;50.846;20.632;2024-03-23T15:30:08;19;15;11
50787;PMS5003;36756;50.846;20.632;2024-03-23T15:50:02;8;7;5
50787;PMS5003;36756;50.846;20.632;2024-03-23T16:00:19;8;7;5
50787;PMS5003;36756;50.846;20.632;2024-03-23T16:20:19;4;4;2
50787;PMS5003;36756;50.846;20.632;2024-03-23T16:30:12;4;4;2
50787;PMS5003;36756;50.846;20.632;2024-03-23T16:40:01;4;4;2
50787;PMS5003;36756;50.846;20.632;2024-03-23T16:50:13;15;14;8
50787;PMS5003;36756;50.846;20.632;2024-03-23T17:00:01;15;14;8
50787;PMS5003;36756;50.846;20.632;2024-03-23T17:10:10;15;14;8
50787;PMS5003;36756;50.846;20.632;2024-03-23T17:20:10;8;6;5
50787;PMS5003;36756;50.846;20.632;2024-03-23T17:30:02;8;6;5
50787;PMS5003;36756;50.846;20.632;2024-03-23T17:40:09;8;6;5
50787;PMS5003;36756;50.846;20.632;2024-03-23T17:50:13;6;6;4
50787;PMS5003;36756;50.846;20.632;2024-03-23T18:00:21;6;6;4
50787;PMS5003;36756;50.846;20.632;2024-03-23T18:10:12;6;6;4
50787;PMS5003;36756;50.846;20.632;2024-03-23T18:20:14;2;2;2
50787;PMS5003;36756;50.846;20.632;2024-03-23T18:30:12;2;2;2
50787;PMS5003;36756;50.846;20.632;2024-03-23T18:40:02;2;2;2
50787;PMS5003;36756;50.846;20.632;2024-03-23T18:50:05;3;3;3
50787;PMS5003;36756;50.846;20.632;2024-03-23T19:00:11;3;3;3
50787;PMS5003;36756;50.846;20.632;2024-03-23T19:10:10;3;3;3
50787;PMS5003;36756;50.846;20.632;2024-03-23T19:20:14;3;3;2
50787;PMS5003;36756;50.846;20.632;2024-03-23T19:30:05;3;3;2
50787;PMS5003;36756;50.846;20.632;2024-03-23T19:40:01;3;3;2
50787;PMS5003;36756;50.846;20.632;2024-03-23T19:50:05;9;7;4
50787;PMS5003;36756;50.846;20.632;2024-03-23T20:00:14;9;7;4
50787;PMS5003;36756;50.846;20.632;2024-03-23T20:10:06;9;7;4
50787;PMS5003;36756;50.846;20.632;2024-03-23T20:20:14;9;7;5
50787;PMS5003;36756;50.846;20.632;2024-03-23T20:30:18;9;7;5
50787;PMS5003;36756;50.846;20.632;2024-03-23T20:40:13;9;7;5
50787;PMS5003;36756;50.846;20.632;2024-03-23T20:50:14;4;4;1
50787;PMS5003;36756;50.846;20.632;2024-03-23T21:00:13;4;4;1
50787;PMS5003;36756;50.846;20.632;2024-03-23T21:10:02;4;4;1
50787;PMS5003;36756;50.846;20.632;2024-03-23T21:20:15;8;5;3
50787;PMS5003;36756;50.846;20.632;2024-03-23T21:30:13;8;5;3
50787;PMS5003;36756;50.846;20.632;2024-03-23T21:40:09;8;5;3
50787;PMS5003;36756;50.846;20.632;2024-03-23T21:50:14;10;8;4
50787;PMS5003;36756;50.846;20.632;2024-03-23T22:00:07;10;8;4
50787;PMS5003;36756;50.846;20.632;2024-03-23T22:10:02;10;8;4
50787;PMS5003;36756;50.846;20.632;2024-03-23T22:20:10;10;8;4
50787;PMS5003;36756;50.846;20.632;2024-03-23T22:30:06;10;8;4
50787;PMS5003;36756;50.846;20.632;2024-03-23T22:40:08;10;8;4
50787;PMS5003;36756;50.846;20.632;2024-03-23T22:50:12;8;5;3
50787;PMS5003;36756;50.846;20.632;2024-03-23T23:00:16;8;5;3
50787;PMS5003;36756;50.846;20.632;2024-03-23T23:10:02;6;6;3
50787;PMS5003;36756;50.846;20.632;2024-03-23T23:20:07;6;6;3
50787;PMS5003;36756;50.846;20.632;2024-03-23T23:30:02;6;6;3
50787;PMS5003;36756;50.846;20.632;2024-03-23T23:40:12;4;3;2
50787;PMS5003;36756;50.846;20.632;2024-03-23T23:50:13;4;3;2
